EST,Max TemperatureF,Mean TemperatureF,Min TemperatureF,Max Dew PointF,MeanDew PointF,Min DewpointF,Max Humidity, Mean Humidity, Min Humidity, Max Sea Level PressureIn, Mean Sea Level PressureIn, Min Sea Level PressureIn, Max VisibilityMiles, Mean VisibilityMiles, Min VisibilityMiles, Max Wind SpeedMPH, Mean Wind SpeedMPH, Max Gust SpeedMPH,PrecipitationIn, CloudCover, Events, WindDirDegrees
2013-2-1,30,25,20,18,8,3,63,49,34,30.32,30.05,29.84,20,10,2,31,15,38,T,4,Snow,281
2013-2-2,24,20,15,22,15,4,96,73,49,30.35,30.16,30.02,10,5,1,15,5,20,0.05,6,Snow,198
2013-2-3,31,25,18,25,20,11,92,78,63,30.03,29.89,29.80,10,6,2,23,3,29,T,7,Snow,282
2013-2-4,31,26,21,19,12,8,69,56,43,30.05,29.99,29.93,10,10,10,22,8,26,0.00,3,,273
2013-2-5,33,30,27,28,25,21,85,77,69,29.97,29.92,29.87,10,6,1,8,2,10,0.01,8,Snow,355
2013-2-6,40,33,25,28,24,18,100,75,50,30.36,30.11,29.92,10,7,2,20,6,23,0.00,4,,289
2013-2-7,35,29,22,21,17,13,92,65,38,30.49,30.40,30.29,10,10,7,13,3,16,0.00,4,,114
2013-2-8,36,34,32,34,31,22,100,81,61,30.26,29.86,29.72,10,6,1,23,7,29,0.16,8,Rain-Snow,359
2013-2-9,33,27,21,23,16,10,75,63,50,30.41,30.18,29.88,10,10,10,30,15,38,T,3,,319
2013-2-10,42,28,14,22,13,8,80,55,30,30.51,30.41,30.30,10,10,10,10,2,15,0.00,0,,155
2013-2-11,45,39,33,44,36,24,100,78,56,30.25,29.90,29.67,10,3,0,17,5,18,0.30,7,Fog-Rain,183
2013-2-12,45,37,28,29,25,22,75,60,45,30.01,29.94,29.80,15,10,10,29,12,36,0.00,4,,296
2013-2-13,43,33,23,33,28,21,100,75,49,29.98,29.80,29.71,10,6,1,10,1,13,0.10,4,Rain-Snow,340
2013-2-14,45,39,33,32,29,25,96,71,45,30.01,29.93,29.74,10,8,3,14,4,17,0.00,4,,273
2013-2-15,54,42,29,36,31,26,92,67,41,30.04,29.99,29.94,10,7,1,21,6,25,0.17,5,Rain-Snow,276
2013-2-16,36,33,29,34,28,11,100,73,45,30.00,29.95,29.83,10,4,0,16,7,21,0.01,7,Fog-Snow,324
2013-2-17,32,26,20,18,10,1,60,48,36,30.14,29.90,29.81,10,9,1,35,17,41,T,4,Snow,312
2013-2-18,37,28,18,14,9,5,61,47,32,30.35,30.25,30.17,10,10,10,29,9,36,0.00,1,,259
2013-2-19,42,33,24,38,27,13,100,72,43,30.16,29.90,29.72,10,8,1,17,6,23,0.16,4,Rain-Snow,223
2013-2-20,34,29,24,19,12,8,59,49,39,30.09,29.97,29.83,10,10,10,27,17,36,T,4,,290
2013-2-21,36,30,23,16,13,10,63,52,40,30.34,30.17,30.08,10,10,10,24,14,30,T,5,,311
2013-2-22,35,28,21,26,20,14,74,63,52,30.41,30.33,30.25,10,10,10,12,5,17,T,4,,135
2013-2-23,45,39,33,43,37,27,100,85,70,30.24,29.99,29.82,10,3,1,9,3,13,0.02,8,Rain,14
2013-2-24,45,38,31,38,30,19,100,75,49,30.07,29.89,29.78,10,8,2,25,10,31,0.00,6,,306
2013-2-25,46,38,29,26,23,19,69,55,40,30.25,30.17,30.08,10,10,10,15,5,18,0.00,5,,332
2013-2-26,45,35,25,34,29,22,92,73,53,30.26,30.10,29.78,10,9,5,23,7,38,0.19,4,Rain,86
2013-2-27,50,44,38,43,38,33,92,76,60,29.74,29.60,29.53,10,7,2,20,8,26,0.11,8,Rain,297
2013-2-28,47,40,33,36,31,26,85,67,49,29.69,29.64,29.61,10,10,10,20,7,24,T,7,Rain,276